sensor_id;sensor_type;location;lat;lon;timestamp;temperature;humidity
55771;DHT22;41687;-33.234;-60.334;2023-08-17T00:00:04;21.60;96.00
55771;DHT22;41687;-33.234;-60.334;2023-08-17T00:02:35;21.60;95.80
55771;DHT22;41687;-33.234;-60.334;2023-08-17T00:05:03;21.50;96.10
55771;DHT22;41687;-33.234;-60.334;2023-08-17T00:07:33;21.50;96.20
55771;DHT22;41687;-33.234;-60.334;2023-08-17T00:10:01;21.50;96.40
55771;DHT22;41687;-33.234;-60.334;2023-08-17T00:12:30;21.50;96.60
55771;DHT22;41687;-33.234;-60.334;2023-08-17T00:14:57;21.40;96.40
55771;DHT22;41687;-33.234;-60.334;2023-08-17T00:17:25;21.40;96.70
55771;DHT22;41687;-33.234;-60.334;2023-08-17T00:19:52;21.40;96.60
55771;DHT22;41687;-33.234;-60.334;2023-08-17T00:22:20;21.40;96.50
55771;DHT22;41687;-33.234;-60.334;2023-08-17T00:24:48;21.40;96.40
55771;DHT22;41687;-33.234;-60.334;2023-08-17T00:27:15;21.50;96.30
55771;DHT22;41687;-33.234;-60.334;2023-08-17T00:29:45;21.50;96.20
55771;DHT22;41687;-33.234;-60.334;2023-08-17T00:32:13;21.50;96.20
55771;DHT22;41687;-33.234;-60.334;2023-08-17T00:34:41;21.60;96.10
55771;DHT22;41687;-33.234;-60.334;2023-08-17T00:37:09;21.50;96.10
55771;DHT22;41687;-33.234;-60.334;2023-08-17T00:39:36;21.60;96.00
55771;DHT22;41687;-33.234;-60.334;2023-08-17T00:42:04;21.50;96.20
55771;DHT22;41687;-33.234;-60.334;2023-08-17T00:44:32;21.50;96.30
55771;DHT22;41687;-33.234;-60.334;2023-08-17T00:47:00;21.40;96.40
55771;DHT22;41687;-33.234;-60.334;2023-08-17T00:49:27;21.40;96.50
55771;DHT22;41687;-33.234;-60.334;2023-08-17T00:51:56;21.30;96.60
55771;DHT22;41687;-33.234;-60.334;2023-08-17T00:54:28;21.40;96.50
55771;DHT22;41687;-33.234;-60.334;2023-08-17T00:56:57;21.30;96.80
55771;DHT22;41687;-33.234;-60.334;2023-08-17T00:59:26;21.20;96.80
55771;DHT22;41687;-33.234;-60.334;2023-08-17T01:01:54;21.20;96.90
55771;DHT22;41687;-33.234;-60.334;2023-08-17T01:04:21;21.10;97.10
55771;DHT22;41687;-33.234;-60.334;2023-08-17T01:06:50;21.10;97.20
55771;DHT22;41687;-33.234;-60.334;2023-08-17T01:09:17;21.10;97.30
55771;DHT22;41687;-33.234;-60.334;2023-08-17T01:12:13;21.10;97.30
55771;DHT22;41687;-33.234;-60.334;2023-08-17T01:15:16;21.10;97.20
55771;DHT22;41687;-33.234;-60.334;2023-08-17T01:18:04;21.00;97.40
55771;DHT22;41687;-33.234;-60.334;2023-08-17T01:20:35;21.00;97.30
55771;DHT22;41687;-33.234;-60.334;2023-08-17T01:23:06;20.90;97.50
55771;DHT22;41687;-33.234;-60.334;2023-08-17T01:25:35;20.90;97.50
55771;DHT22;41687;-33.234;-60.334;2023-08-17T01:28:06;20.90;97.30
55771;DHT22;41687;-33.234;-60.334;2023-08-17T01:31:10;20.90;97.30
55771;DHT22;41687;-33.234;-60.334;2023-08-17T01:33:51;20.80;97.50
55771;DHT22;41687;-33.234;-60.334;2023-08-17T01:36:30;20.80;97.70
55771;DHT22;41687;-33.234;-60.334;2023-08-17T01:39:00;20.80;98.00
55771;DHT22;41687;-33.234;-60.334;2023-08-17T01:41:30;20.70;98.20
55771;DHT22;41687;-33.234;-60.334;2023-08-17T01:43:59;20.70;98.20
55771;DHT22;41687;-33.234;-60.334;2023-08-17T01:46:32;20.60;98.80
55771;DHT22;41687;-33.234;-60.334;2023-08-17T01:49:00;20.60;99.10
55771;DHT22;41687;-33.234;-60.334;2023-08-17T01:51:28;20.50;99.60
55771;DHT22;41687;-33.234;-60.334;2023-08-17T01:53:55;20.50;99.80
55771;DHT22;41687;-33.234;-60.334;2023-08-17T01:56:23;20.50;99.80
55771;DHT22;41687;-33.234;-60.334;2023-08-17T01:58:51;20.40;99.90
55771;DHT22;41687;-33.234;-60.334;2023-08-17T02:01:18;20.30;99.90
55771;DHT22;41687;-33.234;-60.334;2023-08-17T02:03:46;20.20;99.90
55771;DHT22;41687;-33.234;-60.334;2023-08-17T02:06:13;20.20;99.90
55771;DHT22;41687;-33.234;-60.334;2023-08-17T02:08:43;20.20;99.90
55771;DHT22;41687;-33.234;-60.334;2023-08-17T02:11:11;20.10;99.90
55771;DHT22;41687;-33.234;-60.334;2023-08-17T02:13:39;20.10;99.90
55771;DHT22;41687;-33.234;-60.334;2023-08-17T02:16:06;20.10;99.90
55771;DHT22;41687;-33.234;-60.334;2023-08-17T02:18:34;20.10;99.90
55771;DHT22;41687;-33.234;-60.334;2023-08-17T02:21:01;20.10;99.90
55771;DHT22;41687;-33.234;-60.334;2023-08-17T02:23:29;20.10;99.90
55771;DHT22;41687;-33.234;-60.334;2023-08-17T02:25:57;20.00;99.90
55771;DHT22;41687;-33.234;-60.334;2023-08-17T02:28:24;19.90;99.90
55771;DHT22;41687;-33.234;-60.334;2023-08-17T02:30:56;19.90;99.90
55771;DHT22;41687;-33.234;-60.334;2023-08-17T02:33:27;19.80;99.90
55771;DHT22;41687;-33.234;-60.334;2023-08-17T02:35:55;19.80;99.90
55771;DHT22;41687;-33.234;-60.334;2023-08-17T02:38:23;19.80;99.90
55771;DHT22;41687;-33.234;-60.334;2023-08-17T02:40:51;19.70;99.90
55771;DHT22;41687;-33.234;-60.334;2023-08-17T02:43:18;19.70;99.90
55771;DHT22;41687;-33.234;-60.334;2023-08-17T02:45:45;19.80;99.90
55771;DHT22;41687;-33.234;-60.334;2023-08-17T02:48:13;19.70;99.90
55771;DHT22;41687;-33.234;-60.334;2023-08-17T02:50:41;19.60;99.90
55771;DHT22;41687;-33.234;-60.334;2023-08-17T02:53:08;19.60;99.90
55771;DHT22;41687;-33.234;-60.334;2023-08-17T02:55:36;19.60;99.90
55771;DHT22;41687;-33.234;-60.334;2023-08-17T02:58:04;19.60;99.90
55771;DHT22;41687;-33.234;-60.334;2023-08-17T03:00:32;19.50;99.90
55771;DHT22;41687;-33.234;-60.334;2023-08-17T03:02:59;19.50;99.90
55771;DHT22;41687;-33.234;-60.334;2023-08-17T03:05:27;19.40;99.90
55771;DHT22;41687;-33.234;-60.334;2023-08-17T03:07:54;19.30;99.90
55771;DHT22;41687;-33.234;-60.334;2023-08-17T03:10:22;19.30;99.90
55771;DHT22;41687;-33.234;-60.334;2023-08-17T03:12:51;19.30;99.90
55771;DHT22;41687;-33.234;-60.334;2023-08-17T03:15:20;19.30;99.90
55771;DHT22;41687;-33.234;-60.334;2023-08-17T03:17:47;19.20;99.90
55771;DHT22;41687;-33.234;-60.334;2023-08-17T03:20:15;19.20;99.90
55771;DHT22;41687;-33.234;-60.334;2023-08-17T03:22:42;19.20;99.90
55771;DHT22;41687;-33.234;-60.334;2023-08-17T03:25:10;19.20;99.90
55771;DHT22;41687;-33.234;-60.334;2023-08-17T03:27:39;19.10;99.90
55771;DHT22;41687;-33.234;-60.334;2023-08-17T03:30:07;19.10;99.90
55771;DHT22;41687;-33.234;-60.334;2023-08-17T03:32:35;19.10;99.90
55771;DHT22;41687;-33.234;-60.334;2023-08-17T03:35:03;19.20;99.90
55771;DHT22;41687;-33.234;-60.334;2023-08-17T03:37:31;19.10;99.90
55771;DHT22;41687;-33.234;-60.334;2023-08-17T03:39:58;19.10;99.90
55771;DHT22;41687;-33.234;-60.334;2023-08-17T03:42:27;19.10;99.90
55771;DHT22;41687;-33.234;-60.334;2023-08-17T03:44:55;19.20;99.90
55771;DHT22;41687;-33.234;-60.334;2023-08-17T03:47:23;19.20;99.90
55771;DHT22;41687;-33.234;-60.334;2023-08-17T03:49:51;19.20;99.90
55771;DHT22;41687;-33.234;-60.334;2023-08-17T03:52:18;19.20;99.90
55771;DHT22;41687;-33.234;-60.334;2023-08-17T03:54:48;19.20;99.90
55771;DHT22;41687;-33.234;-60.334;2023-08-17T03:57:17;19.10;99.90
55771;DHT22;41687;-33.234;-60.334;2023-08-17T03:59:44;19.10;99.90
55771;DHT22;41687;-33.234;-60.334;2023-08-17T04:02:12;19.10;99.90
55771;DHT22;41687;-33.234;-60.334;2023-08-17T04:04:40;19.00;99.90
55771;DHT22;41687;-33.234;-60.334;2023-08-17T04:07:07;19.00;99.90
55771;DHT22;41687;-33.234;-60.334;2023-08-17T04:09:35;18.90;99.90
55771;DHT22;41687;-33.234;-60.334;2023-08-17T04:12:02;18.90;99.90
55771;DHT22;41687;-33.234;-60.334;2023-08-17T04:14:34;18.90;99.90
55771;DHT22;41687;-33.234;-60.334;2023-08-17T04:17:01;18.80;99.90
55771;DHT22;41687;-33.234;-60.334;2023-08-17T04:19:30;18.80;99.90
55771;DHT22;41687;-33.234;-60.334;2023-08-17T04:21:57;18.70;99.90
55771;DHT22;41687;-33.234;-60.334;2023-08-17T04:24:25;18.70;99.90
55771;DHT22;41687;-33.234;-60.334;2023-08-17T04:26:53;18.60;99.90
55771;DHT22;41687;-33.234;-60.334;2023-08-17T04:29:21;18.70;99.90
55771;DHT22;41687;-33.234;-60.334;2023-08-17T04:31:49;18.70;99.90
55771;DHT22;41687;-33.234;-60.334;2023-08-17T04:34:17;18.70;99.90
55771;DHT22;41687;-33.234;-60.334;2023-08-17T04:36:44;18.60;99.90
55771;DHT22;41687;-33.234;-60.334;2023-08-17T04:39:12;18.50;99.90
55771;DHT22;41687;-33.234;-60.334;2023-08-17T04:41:39;18.50;99.90
55771;DHT22;41687;-33.234;-60.334;2023-08-17T04:44:10;18.50;99.90
55771;DHT22;41687;-33.234;-60.334;2023-08-17T04:46:38;18.50;99.90
55771;DHT22;41687;-33.234;-60.334;2023-08-17T04:49:05;18.50;99.90
55771;DHT22;41687;-33.234;-60.334;2023-08-17T04:51:33;18.50;99.90
55771;DHT22;41687;-33.234;-60.334;2023-08-17T04:54:01;18.50;99.90
55771;DHT22;41687;-33.234;-60.334;2023-08-17T04:56:29;18.50;99.90
55771;DHT22;41687;-33.234;-60.334;2023-08-17T04:58:56;18.50;99.90
55771;DHT22;41687;-33.234;-60.334;2023-08-17T05:01:24;18.50;99.90
55771;DHT22;41687;-33.234;-60.334;2023-08-17T05:03:52;18.40;99.90
55771;DHT22;41687;-33.234;-60.334;2023-08-17T05:06:20;18.30;99.90
55771;DHT22;41687;-33.234;-60.334;2023-08-17T05:08:47;18.40;99.90
55771;DHT22;41687;-33.234;-60.334;2023-08-17T05:11:15;18.40;99.90
55771;DHT22;41687;-33.234;-60.334;2023-08-17T05:13:44;18.40;99.90
55771;DHT22;41687;-33.234;-60.334;2023-08-17T05:16:11;18.30;99.90
55771;DHT22;41687;-33.234;-60.334;2023-08-17T05:18:39;18.30;99.90
55771;DHT22;41687;-33.234;-60.334;2023-08-17T05:21:09;18.20;99.90
55771;DHT22;41687;-33.234;-60.334;2023-08-17T05:23:36;18.20;99.90
55771;DHT22;41687;-33.234;-60.334;2023-08-17T05:26:05;18.10;99.90
55771;DHT22;41687;-33.234;-60.334;2023-08-17T05:28:32;18.20;99.90
55771;DHT22;41687;-33.234;-60.334;2023-08-17T05:31:08;18.20;99.90
55771;DHT22;41687;-33.234;-60.334;2023-08-17T05:33:40;18.20;99.90
55771;DHT22;41687;-33.234;-60.334;2023-08-17T05:36:09;18.20;99.90
55771;DHT22;41687;-33.234;-60.334;2023-08-17T05:38:36;18.20;99.90
55771;DHT22;41687;-33.234;-60.334;2023-08-17T05:41:05;18.10;99.90
55771;DHT22;41687;-33.234;-60.334;2023-08-17T05:43:33;18.10;99.90
55771;DHT22;41687;-33.234;-60.334;2023-08-17T05:46:01;18.10;99.90
55771;DHT22;41687;-33.234;-60.334;2023-08-17T05:48:29;18.10;99.90
55771;DHT22;41687;-33.234;-60.334;2023-08-17T05:50:57;18.00;99.90
55771;DHT22;41687;-33.234;-60.334;2023-08-17T05:53:25;18.00;99.90
55771;DHT22;41687;-33.234;-60.334;2023-08-17T05:55:53;18.00;99.90
55771;DHT22;41687;-33.234;-60.334;2023-08-17T05:58:20;17.90;99.90
55771;DHT22;41687;-33.234;-60.334;2023-08-17T06:00:48;17.90;99.90
55771;DHT22;41687;-33.234;-60.334;2023-08-17T06:03:16;17.80;99.90
55771;DHT22;41687;-33.234;-60.334;2023-08-17T06:05:44;17.70;99.90
55771;DHT22;41687;-33.234;-60.334;2023-08-17T06:08:12;17.60;99.90
55771;DHT22;41687;-33.234;-60.334;2023-08-17T06:10:39;17.60;99.90
55771;DHT22;41687;-33.234;-60.334;2023-08-17T06:13:07;17.50;99.90
55771;DHT22;41687;-33.234;-60.334;2023-08-17T06:15:35;17.50;99.90
55771;DHT22;41687;-33.234;-60.334;2023-08-17T06:18:03;17.40;99.90
55771;DHT22;41687;-33.234;-60.334;2023-08-17T06:20:31;17.30;99.90
55771;DHT22;41687;-33.234;-60.334;2023-08-17T06:22:58;17.20;99.90
55771;DHT22;41687;-33.234;-60.334;2023-08-17T06:25:26;17.20;99.90
55771;DHT22;41687;-33.234;-60.334;2023-08-17T06:27:54;17.10;99.90
55771;DHT22;41687;-33.234;-60.334;2023-08-17T06:30:22;16.90;99.90
55771;DHT22;41687;-33.234;-60.334;2023-08-17T06:32:53;16.90;99.90
55771;DHT22;41687;-33.234;-60.334;2023-08-17T06:35:20;16.80;99.90
55771;DHT22;41687;-33.234;-60.334;2023-08-17T06:37:48;16.80;99.90
55771;DHT22;41687;-33.234;-60.334;2023-08-17T06:40:16;16.80;99.90
55771;DHT22;41687;-33.234;-60.334;2023-08-17T06:42:43;16.70;99.90
55771;DHT22;41687;-33.234;-60.334;2023-08-17T06:45:11;16.60;99.90
55771;DHT22;41687;-33.234;-60.334;2023-08-17T06:47:38;16.50;99.90
55771;DHT22;41687;-33.234;-60.334;2023-08-17T06:50:06;16.40;99.90
55771;DHT22;41687;-33.234;-60.334;2023-08-17T06:52:34;16.40;99.90
55771;DHT22;41687;-33.234;-60.334;2023-08-17T06:55:02;16.30;99.90
55771;DHT22;41687;-33.234;-60.334;2023-08-17T06:57:29;16.20;99.90
55771;DHT22;41687;-33.234;-60.334;2023-08-17T06:59:57;16.20;99.90
55771;DHT22;41687;-33.234;-60.334;2023-08-17T07:02:24;16.10;99.90
55771;DHT22;41687;-33.234;-60.334;2023-08-17T07:04:52;16.10;99.90
55771;DHT22;41687;-33.234;-60.334;2023-08-17T07:07:19;16.10;99.90
55771;DHT22;41687;-33.234;-60.334;2023-08-17T07:09:47;16.10;99.90
55771;DHT22;41687;-33.234;-60.334;2023-08-17T07:12:14;16.10;99.90
55771;DHT22;41687;-33.234;-60.334;2023-08-17T07:14:42;16.00;99.90
55771;DHT22;41687;-33.234;-60.334;2023-08-17T07:17:09;15.90;99.90
55771;DHT22;41687;-33.234;-60.334;2023-08-17T07:19:37;15.80;99.90
55771;DHT22;41687;-33.234;-60.334;2023-08-17T07:22:05;15.70;99.90
55771;DHT22;41687;-33.234;-60.334;2023-08-17T07:24:32;15.60;99.90
55771;DHT22;41687;-33.234;-60.334;2023-08-17T07:26:59;15.60;99.90
55771;DHT22;41687;-33.234;-60.334;2023-08-17T07:29:28;15.60;99.90
55771;DHT22;41687;-33.234;-60.334;2023-08-17T07:31:56;15.60;99.90
55771;DHT22;41687;-33.234;-60.334;2023-08-17T07:34:28;15.50;99.90
55771;DHT22;41687;-33.234;-60.334;2023-08-17T07:36:58;15.40;99.90
55771;DHT22;41687;-33.234;-60.334;2023-08-17T07:39:25;15.30;99.90
55771;DHT22;41687;-33.234;-60.334;2023-08-17T07:41:52;15.30;99.90
55771;DHT22;41687;-33.234;-60.334;2023-08-17T07:44:21;15.30;99.90
55771;DHT22;41687;-33.234;-60.334;2023-08-17T07:46:48;15.30;99.90
55771;DHT22;41687;-33.234;-60.334;2023-08-17T07:49:16;15.20;99.90
55771;DHT22;41687;-33.234;-60.334;2023-08-17T07:51:43;15.20;99.90
55771;DHT22;41687;-33.234;-60.334;2023-08-17T07:54:11;15.20;99.90
55771;DHT22;41687;-33.234;-60.334;2023-08-17T07:56:38;15.20;99.90
55771;DHT22;41687;-33.234;-60.334;2023-08-17T07:59:06;15.20;99.90
55771;DHT22;41687;-33.234;-60.334;2023-08-17T08:01:33;15.20;99.90
55771;DHT22;41687;-33.234;-60.334;2023-08-17T08:04:01;15.20;99.90
55771;DHT22;41687;-33.234;-60.334;2023-08-17T08:06:29;15.20;99.90
55771;DHT22;41687;-33.234;-60.334;2023-08-17T08:08:56;15.20;99.90
55771;DHT22;41687;-33.234;-60.334;2023-08-17T08:11:24;15.20;99.90
55771;DHT22;41687;-33.234;-60.334;2023-08-17T08:13:54;15.10;99.90
55771;DHT22;41687;-33.234;-60.334;2023-08-17T08:16:22;15.20;99.90
55771;DHT22;41687;-33.234;-60.334;2023-08-17T08:18:49;15.00;99.90
55771;DHT22;41687;-33.234;-60.334;2023-08-17T08:21:17;15.10;99.90
55771;DHT22;41687;-33.234;-60.334;2023-08-17T08:23:44;15.10;99.90
55771;DHT22;41687;-33.234;-60.334;2023-08-17T08:26:12;15.10;99.90
55771;DHT22;41687;-33.234;-60.334;2023-08-17T08:28:40;15.00;99.90
55771;DHT22;41687;-33.234;-60.334;2023-08-17T08:31:07;15.00;99.90
55771;DHT22;41687;-33.234;-60.334;2023-08-17T08:33:35;15.00;99.90
55771;DHT22;41687;-33.234;-60.334;2023-08-17T08:36:02;15.00;99.90
55771;DHT22;41687;-33.234;-60.334;2023-08-17T08:38:30;15.10;99.90
55771;DHT22;41687;-33.234;-60.334;2023-08-17T08:40:58;15.00;99.90
55771;DHT22;41687;-33.234;-60.334;2023-08-17T08:43:26;15.00;99.90
55771;DHT22;41687;-33.234;-60.334;2023-08-17T08:45:54;14.90;99.90
55771;DHT22;41687;-33.234;-60.334;2023-08-17T08:48:23;14.90;99.90
55771;DHT22;41687;-33.234;-60.334;2023-08-17T08:50:55;14.80;99.90
55771;DHT22;41687;-33.234;-60.334;2023-08-17T08:53:40;14.90;99.90
55771;DHT22;41687;-33.234;-60.334;2023-08-17T08:56:15;15.00;99.90
55771;DHT22;41687;-33.234;-60.334;2023-08-17T08:58:46;14.90;99.90
55771;DHT22;41687;-33.234;-60.334;2023-08-17T09:01:15;14.90;99.90
55771;DHT22;41687;-33.234;-60.334;2023-08-17T09:03:45;14.90;99.90
55771;DHT22;41687;-33.234;-60.334;2023-08-17T09:06:14;14.90;99.90
55771;DHT22;41687;-33.234;-60.334;2023-08-17T09:08:44;15.00;99.90
55771;DHT22;41687;-33.234;-60.334;2023-08-17T09:11:12;15.00;99.90
55771;DHT22;41687;-33.234;-60.334;2023-08-17T09:13:39;15.00;99.90
55771;DHT22;41687;-33.234;-60.334;2023-08-17T09:16:07;15.10;99.90
55771;DHT22;41687;-33.234;-60.334;2023-08-17T09:18:35;15.10;99.90
55771;DHT22;41687;-33.234;-60.334;2023-08-17T09:21:02;15.10;99.90
55771;DHT22;41687;-33.234;-60.334;2023-08-17T09:23:30;15.00;99.90
55771;DHT22;41687;-33.234;-60.334;2023-08-17T09:25:58;15.00;99.90
55771;DHT22;41687;-33.234;-60.334;2023-08-17T09:28:34;15.00;99.90
55771;DHT22;41687;-33.234;-60.334;2023-08-17T09:31:05;15.00;99.90
55771;DHT22;41687;-33.234;-60.334;2023-08-17T09:33:33;15.00;99.90
55771;DHT22;41687;-33.234;-60.334;2023-08-17T09:36:02;15.00;99.90
55771;DHT22;41687;-33.234;-60.334;2023-08-17T09:38:30;15.00;99.90
55771;DHT22;41687;-33.234;-60.334;2023-08-17T09:40:58;14.90;99.90
55771;DHT22;41687;-33.234;-60.334;2023-08-17T09:43:26;14.90;99.90
55771;DHT22;41687;-33.234;-60.334;2023-08-17T09:46:01;15.00;99.90
55771;DHT22;41687;-33.234;-60.334;2023-08-17T09:48:31;15.00;99.90
55771;DHT22;41687;-33.234;-60.334;2023-08-17T09:50:58;14.90;99.90
55771;DHT22;41687;-33.234;-60.334;2023-08-17T09:53:29;14.90;99.90
55771;DHT22;41687;-33.234;-60.334;2023-08-17T09:55:56;15.00;99.90
55771;DHT22;41687;-33.234;-60.334;2023-08-17T09:58:24;14.90;99.90
55771;DHT22;41687;-33.234;-60.334;2023-08-17T10:00:51;14.90;99.90
55771;DHT22;41687;-33.234;-60.334;2023-08-17T10:03:20;14.90;99.90
55771;DHT22;41687;-33.234;-60.334;2023-08-17T10:06:01;14.90;99.90
55771;DHT22;41687;-33.234;-60.334;2023-08-17T10:08:33;14.90;99.90
55771;DHT22;41687;-33.234;-60.334;2023-08-17T10:11:02;14.80;99.90
55771;DHT22;41687;-33.234;-60.334;2023-08-17T10:13:37;14.90;99.90
55771;DHT22;41687;-33.234;-60.334;2023-08-17T10:22:15;14.90;99.90
55771;DHT22;41687;-33.234;-60.334;2023-08-17T10:24:44;14.80;99.90
55771;DHT22;41687;-33.234;-60.334;2023-08-17T10:27:13;14.90;99.90
55771;DHT22;41687;-33.234;-60.334;2023-08-17T10:29:41;14.90;99.90
55771;DHT22;41687;-33.234;-60.334;2023-08-17T10:32:09;14.90;99.90
55771;DHT22;41687;-33.234;-60.334;2023-08-17T10:34:39;14.90;99.90
55771;DHT22;41687;-33.234;-60.334;2023-08-17T10:37:06;14.90;99.90
55771;DHT22;41687;-33.234;-60.334;2023-08-17T10:39:34;14.90;99.90
55771;DHT22;41687;-33.234;-60.334;2023-08-17T10:42:06;14.90;99.90
55771;DHT22;41687;-33.234;-60.334;2023-08-17T10:44:47;14.90;99.90
55771;DHT22;41687;-33.234;-60.334;2023-08-17T10:49:59;14.90;99.90
55771;DHT22;41687;-33.234;-60.334;2023-08-17T10:52:30;15.00;99.90
55771;DHT22;41687;-33.234;-60.334;2023-08-17T10:55:06;15.00;99.90
55771;DHT22;41687;-33.234;-60.334;2023-08-17T10:57:41;15.00;99.90
55771;DHT22;41687;-33.234;-60.334;2023-08-17T11:00:22;15.10;99.90
55771;DHT22;41687;-33.234;-60.334;2023-08-17T11:03:01;15.00;99.90
55771;DHT22;41687;-33.234;-60.334;2023-08-17T11:05:45;15.10;99.90
55771;DHT22;41687;-33.234;-60.334;2023-08-17T11:08:39;15.10;99.90
55771;DHT22;41687;-33.234;-60.334;2023-08-17T11:11:17;15.00;99.90
55771;DHT22;41687;-33.234;-60.334;2023-08-17T11:13:46;15.00;99.90
55771;DHT22;41687;-33.234;-60.334;2023-08-17T11:16:16;14.90;99.90
55771;DHT22;41687;-33.234;-60.334;2023-08-17T11:18:46;15.00;99.90
55771;DHT22;41687;-33.234;-60.334;2023-08-17T11:21:15;15.00;99.90
55771;DHT22;41687;-33.234;-60.334;2023-08-17T11:23:44;15.00;99.90
55771;DHT22;41687;-33.234;-60.334;2023-08-17T11:26:14;15.10;99.90
55771;DHT22;41687;-33.234;-60.334;2023-08-17T11:28:43;15.00;99.90
55771;DHT22;41687;-33.234;-60.334;2023-08-17T11:31:13;15.10;99.90
55771;DHT22;41687;-33.234;-60.334;2023-08-17T11:33:44;15.10;99.90
55771;DHT22;41687;-33.234;-60.334;2023-08-17T11:36:15;15.00;99.90
55771;DHT22;41687;-33.234;-60.334;2023-08-17T11:38:43;15.10;99.90
55771;DHT22;41687;-33.234;-60.334;2023-08-17T11:41:11;15.10;99.90
55771;DHT22;41687;-33.234;-60.334;2023-08-17T11:43:42;15.10;99.90
55771;DHT22;41687;-33.234;-60.334;2023-08-17T11:46:09;15.20;99.90
55771;DHT22;41687;-33.234;-60.334;2023-08-17T11:48:37;15.20;99.90
55771;DHT22;41687;-33.234;-60.334;2023-08-17T11:51:04;15.30;99.90
55771;DHT22;41687;-33.234;-60.334;2023-08-17T11:53:38;15.30;99.90
55771;DHT22;41687;-33.234;-60.334;2023-08-17T11:56:06;15.30;99.90
55771;DHT22;41687;-33.234;-60.334;2023-08-17T11:58:51;15.20;99.90
55771;DHT22;41687;-33.234;-60.334;2023-08-17T12:01:19;15.30;99.90
55771;DHT22;41687;-33.234;-60.334;2023-08-17T12:03:48;15.20;99.90
55771;DHT22;41687;-33.234;-60.334;2023-08-17T12:06:16;15.20;99.90
55771;DHT22;41687;-33.234;-60.334;2023-08-17T12:08:45;15.20;99.90
55771;DHT22;41687;-33.234;-60.334;2023-08-17T12:11:15;15.20;99.90
55771;DHT22;41687;-33.234;-60.334;2023-08-17T12:13:42;15.20;99.90
55771;DHT22;41687;-33.234;-60.334;2023-08-17T12:16:20;15.10;99.90
55771;DHT22;41687;-33.234;-60.334;2023-08-17T12:18:53;15.10;99.90
55771;DHT22;41687;-33.234;-60.334;2023-08-17T12:21:24;15.10;99.90
55771;DHT22;41687;-33.234;-60.334;2023-08-17T12:23:52;15.10;99.90
55771;DHT22;41687;-33.234;-60.334;2023-08-17T12:26:23;15.00;99.90
55771;DHT22;41687;-33.234;-60.334;2023-08-17T12:28:51;15.00;99.90
55771;DHT22;41687;-33.234;-60.334;2023-08-17T12:31:22;15.10;99.90
55771;DHT22;41687;-33.234;-60.334;2023-08-17T12:33:51;15.10;99.90
55771;DHT22;41687;-33.234;-60.334;2023-08-17T12:36:18;14.90;99.90
55771;DHT22;41687;-33.234;-60.334;2023-08-17T12:38:47;15.00;99.90
55771;DHT22;41687;-33.234;-60.334;2023-08-17T12:41:14;15.00;99.90
55771;DHT22;41687;-33.234;-60.334;2023-08-17T12:43:43;15.00;99.90
55771;DHT22;41687;-33.234;-60.334;2023-08-17T12:46:10;15.00;99.90
55771;DHT22;41687;-33.234;-60.334;2023-08-17T12:48:38;15.00;99.90
55771;DHT22;41687;-33.234;-60.334;2023-08-17T12:51:06;15.10;99.90
55771;DHT22;41687;-33.234;-60.334;2023-08-17T12:53:33;15.10;99.90
55771;DHT22;41687;-33.234;-60.334;2023-08-17T12:56:01;15.20;99.90
55771;DHT22;41687;-33.234;-60.334;2023-08-17T12:58:28;15.20;99.90
55771;DHT22;41687;-33.234;-60.334;2023-08-17T13:00:56;15.20;99.90
55771;DHT22;41687;-33.234;-60.334;2023-08-17T13:03:24;15.30;99.90
55771;DHT22;41687;-33.234;-60.334;2023-08-17T13:05:51;15.50;99.90
55771;DHT22;41687;-33.234;-60.334;2023-08-17T13:08:19;15.50;99.90
55771;DHT22;41687;-33.234;-60.334;2023-08-17T13:10:46;15.40;99.90
55771;DHT22;41687;-33.234;-60.334;2023-08-17T13:13:14;15.30;99.90
55771;DHT22;41687;-33.234;-60.334;2023-08-17T13:15:41;15.40;99.90
55771;DHT22;41687;-33.234;-60.334;2023-08-17T13:18:09;15.40;99.90
55771;DHT22;41687;-33.234;-60.334;2023-08-17T13:20:36;15.50;99.90
55771;DHT22;41687;-33.234;-60.334;2023-08-17T13:23:06;15.40;99.90
55771;DHT22;41687;-33.234;-60.334;2023-08-17T13:25:33;15.40;99.90
55771;DHT22;41687;-33.234;-60.334;2023-08-17T13:28:00;15.30;99.90
55771;DHT22;41687;-33.234;-60.334;2023-08-17T13:30:29;15.30;99.90
55771;DHT22;41687;-33.234;-60.334;2023-08-17T13:32:57;15.10;99.90
55771;DHT22;41687;-33.234;-60.334;2023-08-17T13:35:25;15.20;99.90
55771;DHT22;41687;-33.234;-60.334;2023-08-17T13:37:53;15.20;99.90
55771;DHT22;41687;-33.234;-60.334;2023-08-17T13:40:24;15.20;99.90
55771;DHT22;41687;-33.234;-60.334;2023-08-17T13:42:52;15.30;99.90
55771;DHT22;41687;-33.234;-60.334;2023-08-17T13:45:20;15.20;99.90
55771;DHT22;41687;-33.234;-60.334;2023-08-17T13:47:47;15.20;99.90
55771;DHT22;41687;-33.234;-60.334;2023-08-17T13:50:15;15.20;99.90
55771;DHT22;41687;-33.234;-60.334;2023-08-17T13:52:45;15.20;99.90
55771;DHT22;41687;-33.234;-60.334;2023-08-17T13:55:13;15.20;99.90
55771;DHT22;41687;-33.234;-60.334;2023-08-17T13:57:41;15.30;99.90
55771;DHT22;41687;-33.234;-60.334;2023-08-17T14:00:09;15.30;99.90
55771;DHT22;41687;-33.234;-60.334;2023-08-17T14:02:37;15.30;99.90
55771;DHT22;41687;-33.234;-60.334;2023-08-17T14:05:04;15.30;99.90
55771;DHT22;41687;-33.234;-60.334;2023-08-17T14:07:32;15.40;99.90
55771;DHT22;41687;-33.234;-60.334;2023-08-17T14:09:59;15.40;99.90
55771;DHT22;41687;-33.234;-60.334;2023-08-17T14:12:28;15.40;99.90
55771;DHT22;41687;-33.234;-60.334;2023-08-17T14:14:55;15.40;99.90
55771;DHT22;41687;-33.234;-60.334;2023-08-17T14:17:23;15.30;99.90
55771;DHT22;41687;-33.234;-60.334;2023-08-17T14:19:50;15.30;99.90
55771;DHT22;41687;-33.234;-60.334;2023-08-17T14:22:18;15.30;99.90
55771;DHT22;41687;-33.234;-60.334;2023-08-17T14:24:45;15.30;99.90
55771;DHT22;41687;-33.234;-60.334;2023-08-17T14:27:13;15.30;99.90
55771;DHT22;41687;-33.234;-60.334;2023-08-17T14:29:41;15.40;99.90
55771;DHT22;41687;-33.234;-60.334;2023-08-17T14:32:09;15.30;99.90
55771;DHT22;41687;-33.234;-60.334;2023-08-17T14:34:36;15.30;99.90
55771;DHT22;41687;-33.234;-60.334;2023-08-17T14:37:04;15.40;99.90
55771;DHT22;41687;-33.234;-60.334;2023-08-17T14:39:31;15.40;99.90
55771;DHT22;41687;-33.234;-60.334;2023-08-17T14:41:59;15.40;99.90
55771;DHT22;41687;-33.234;-60.334;2023-08-17T14:44:26;15.40;99.90
55771;DHT22;41687;-33.234;-60.334;2023-08-17T14:46:54;15.50;99.90
55771;DHT22;41687;-33.234;-60.334;2023-08-17T14:49:21;15.70;99.90
55771;DHT22;41687;-33.234;-60.334;2023-08-17T14:51:49;15.70;99.90
55771;DHT22;41687;-33.234;-60.334;2023-08-17T14:54:17;15.80;99.90
55771;DHT22;41687;-33.234;-60.334;2023-08-17T14:56:44;15.80;99.90
55771;DHT22;41687;-33.234;-60.334;2023-08-17T14:59:11;15.80;99.90
55771;DHT22;41687;-33.234;-60.334;2023-08-17T15:01:38;15.80;99.90
55771;DHT22;41687;-33.234;-60.334;2023-08-17T15:04:06;15.80;99.90
55771;DHT22;41687;-33.234;-60.334;2023-08-17T15:06:33;15.90;99.90